Time;durP1;ratioP1;P1;durP2;ratioP2;P2;SDS_P1;SDS_P2;PMS_P1;PMS_P2;Temp;Humidity;BMP_temperature;BMP_pressure;BME280_temperature;BME280_humidity;BME280_pressure;Samples;Min_cycle;Max_cycle;Signal;HPM_P1;HPM_P2
2023/04/07 00:02:24;;;;;;;2.83;2.05;;;;;;;-0.11;100.00;99465.50;4899815;28;20049;-55
2023/04/07 00:04:57;;;;;;;2.83;2.00;;;;;;;-0.12;100.00;99458.66;4896661;28;20474;-53
2023/04/07 00:07:28;;;;;;;2.83;2.10;;;;;;;-0.07;100.00;99467.28;4895391;28;20049;-55
2023/04/07 00:09:59;;;;;;;2.38;2.17;;;;;;;0.00;100.00;99465.69;4893896;28;20050;-55
2023/04/07 00:12:29;;;;;;;2.78;2.22;;;;;;;0.01;100.00;99449.41;4897755;28;20059;-54
2023/04/07 00:15:00;;;;;;;2.65;2.15;;;;;;;0.02;100.00;99443.44;4895956;28;20061;-52
2023/04/07 00:17:30;;;;;;;1.90;1.70;;;;;;;0.03;100.00;99446.88;4897266;28;20053;-54
2023/04/07 00:20:03;;;;;;;2.67;2.10;;;;;;;0.00;100.00;99442.56;4927854;28;20306;-56
2023/04/07 00:22:33;;;;;;;2.55;2.08;;;;;;;-0.08;100.00;99424.47;4893195;28;20142;-57
2023/04/07 00:25:04;;;;;;;3.25;2.50;;;;;;;-0.21;100.00;99399.47;4891744;28;20068;-56
2023/04/07 00:27:39;;;;;;;3.22;2.20;;;;;;;0.01;100.00;99422.88;4891687;28;20067;-56
2023/04/07 00:30:14;;;;;;;3.17;2.00;;;;;;;-0.01;100.00;99421.13;4893040;28;20068;-57
2023/04/07 00:32:45;;;;;;;2.78;2.08;;;;;;;-0.03;100.00;99404.84;4892365;28;20049;-55
2023/04/07 00:35:19;;;;;;;2.10;1.83;;;;;;;0.09;100.00;99400.72;4891155;28;20095;-55
2023/04/07 00:37:51;;;;;;;4.15;2.03;;;;;;;0.04;100.00;99402.34;4893653;28;20130;-56
2023/04/07 00:40:22;;;;;;;2.67;2.20;;;;;;;0.07;100.00;99402.38;4891888;28;20049;-57
2023/04/07 00:42:53;;;;;;;3.05;1.70;;;;;;;0.02;100.00;99404.03;4893435;28;20049;-57
2023/04/07 00:45:25;;;;;;;3.42;2.30;;;;;;;-0.31;100.00;99349.72;4893486;28;20049;-56
2023/04/07 00:47:57;;;;;;;2.33;1.60;;;;;;;-0.03;100.00;99397.13;4884756;28;20065;-56
2023/04/07 00:50:29;;;;;;;1.70;1.30;;;;;;;-0.05;100.00;99403.97;4890437;28;20087;-57
2023/04/07 00:53:01;;;;;;;1.40;1.30;;;;;;;-0.06;100.00;99396.25;4896036;28;20052;-57
2023/04/07 00:55:32;;;;;;;2.03;1.30;;;;;;;-0.18;100.00;99394.38;4893727;28;20436;-55
2023/04/07 00:58:30;;;;;;;2.63;1.42;;;;;;;-0.21;100.00;99394.34;4890372;28;20056;-57
2023/04/07 01:01:20;;;;;;;2.38;1.60;;;;;;;-0.20;100.00;99393.53;4869422;28;20044;-56
2023/04/07 01:03:58;;;;;;;1.88;1.50;;;;;;;-0.35;100.00;99372.75;4873314;28;20128;-57
2023/04/07 01:06:37;;;;;;;3.08;1.65;;;;;;;-0.20;100.00;99383.25;4878717;28;20838;-56
2023/04/07 01:09:17;;;;;;;9.15;3.90;;;;;;;-0.20;100.00;99390.94;4878402;28;20387;-56
2023/04/07 01:12:00;;;;;;;13.05;5.18;;;;;;;-0.18;100.00;99381.53;4879113;28;20045;-55
2023/04/07 01:14:37;;;;;;;14.57;6.05;;;;;;;-0.18;100.00;99391.81;4877965;28;20053;-57
2023/04/07 01:17:11;;;;;;;13.30;6.22;;;;;;;-0.18;100.00;99376.41;4882254;28;20057;-55
2023/04/07 01:19:47;;;;;;;8.73;4.85;;;;;;;-0.22;100.00;99385.78;4892744;28;20363;-56
2023/04/07 01:22:26;;;;;;;7.30;5.03;;;;;;;-0.14;100.00;99390.16;4891287;28;20049;-56
2023/04/07 01:25:16;;;;;;;4.00;2.72;;;;;;;-0.13;100.00;99390.16;4882830;28;20094;-56
2023/04/07 01:28:01;;;;;;;2.90;1.93;;;;;;;-0.31;100.00;99369.41;4884346;28;20532;-56
2023/04/07 01:30:36;;;;;;;4.05;2.25;;;;;;;-0.23;100.00;99385.75;4881827;28;20345;-56
2023/04/07 01:33:09;;;;;;;2.53;1.80;;;;;;;-0.10;100.00;99395.34;4883050;28;20160;-55
2023/04/07 01:35:41;;;;;;;2.58;1.85;;;;;;;-0.13;100.00;99364.47;4905718;28;20433;-57
2023/04/07 01:38:13;;;;;;;2.17;1.67;;;;;;;-0.02;100.00;99373.19;4902958;28;20064;-57
2023/04/07 01:40:45;;;;;;;2.55;2.00;;;;;;;0.01;100.00;99368.94;4903803;28;20056;-57
2023/04/07 01:43:19;;;;;;;2.30;1.88;;;;;;;0.03;100.00;99369.81;4898186;28;20049;-57
2023/04/07 01:45:53;;;;;;;2.05;1.80;;;;;;;0.04;100.00;99392.09;4901928;28;20054;-57
2023/04/07 01:48:25;;;;;;;5.53;2.20;;;;;;;-0.04;100.00;99367.16;4902592;28;20052;-57
2023/04/07 01:50:57;;;;;;;2.13;1.40;;;;;;;0.01;100.00;99358.66;4896273;28;20171;-56
2023/04/07 01:53:28;;;;;;;1.70;1.50;;;;;;;0.05;100.00;99360.41;4901878;28;20060;-57
2023/04/07 01:55:59;;;;;;;2.42;1.60;;;;;;;-0.47;100.00;99279.38;4902997;28;20048;-56
2023/04/07 01:58:30;;;;;;;2.78;1.55;;;;;;;0.06;100.00;99365.56;4902567;28;20049;-57
2023/04/07 02:01:02;;;;;;;1.73;1.63;;;;;;;0.10;100.00;99374.16;4900828;28;20052;-56
2023/04/07 02:03:41;;;;;;;1.90;1.40;;;;;;;0.08;100.00;99352.75;4901793;28;20048;-55
2023/04/07 02:06:16;;;;;;;1.50;1.33;;;;;;;0.10;100.00;99361.31;4891866;28;20048;-56
2023/04/07 02:08:57;;;;;;;2.20;1.55;;;;;;;0.04;100.00;99356.97;4891426;28;20087;-56
2023/04/07 02:11:30;;;;;;;1.65;1.30;;;;;;;0.07;100.00;99358.72;4891888;28;20126;-55
2023/04/07 02:14:03;;;;;;;1.80;1.42;;;;;;;0.08;100.00;99348.47;4901569;28;20065;-57
2023/04/07 02:16:39;;;;;;;2.17;1.50;;;;;;;0.09;100.00;99333.94;4900003;28;20603;-56
2023/04/07 02:19:11;;;;;;;3.00;1.60;;;;;;;0.11;100.00;99321.97;4890127;28;20084;-56
2023/04/07 02:21:43;;;;;;;3.15;1.50;;;;;;;0.22;100.00;99304.94;4900821;28;20048;-56
2023/04/07 02:24:13;;;;;;;1.60;1.48;;;;;;;0.26;100.00;99309.28;4900946;28;20689;-56
2023/04/07 02:26:44;;;;;;;4.07;1.70;;;;;;;0.18;100.00;99278.38;4900205;28;20064;-55
2023/04/07 02:29:18;;;;;;;2.08;1.60;;;;;;;0.29;100.00;99277.59;4899330;28;20057;-56
2023/04/07 02:31:50;;;;;;;2.03;1.50;;;;;;;0.03;100.00;99226.00;4901722;28;20056;-55
2023/04/07 02:34:21;;;;;;;1.63;1.40;;;;;;;0.33;100.00;99282.78;4900414;28;20111;-57
2023/04/07 02:36:51;;;;;;;1.90;1.38;;;;;;;0.31;100.00;99293.91;4904051;28;20131;-56
2023/04/07 02:39:22;;;;;;;1.42;1.02;;;;;;;0.32;100.00;99301.59;4902230;28;20037;-55
2023/04/07 02:41:53;;;;;;;3.47;1.60;;;;;;;0.17;100.00;99275.78;4904203;28;20052;-57
2023/04/07 02:44:23;;;;;;;2.38;1.38;;;;;;;0.18;100.00;99292.94;4902498;28;20474;-56
2023/04/07 02:46:55;;;;;;;2.58;1.60;;;;;;;0.10;100.00;99279.13;4905160;28;20052;-57
2023/04/07 02:49:26;;;;;;;1.35;1.20;;;;;;;0.14;100.00;99284.31;4893352;28;20150;-57
2023/04/07 02:51:57;;;;;;;2.83;1.60;;;;;;;0.14;100.00;99284.31;4905167;28;20048;-57
2023/04/07 02:54:27;;;;;;;1.80;1.38;;;;;;;0.20;100.00;99280.94;4902426;28;20068;-57
2023/04/07 02:56:58;;;;;;;2.58;1.88;;;;;;;0.28;100.00;99279.31;4904226;28;20070;-56
2023/04/07 02:59:28;;;;;;;3.20;1.70;;;;;;;0.35;100.00;99281.09;4902720;28;20145;-57
2023/04/07 03:02:01;;;;;;;1.48;1.33;;;;;;;0.29;100.00;99280.19;4903338;28;20446;-57
2023/04/07 03:04:32;;;;;;;2.25;1.60;;;;;;;0.28;100.00;99269.03;4903461;28;20139;-58
2023/04/07 03:07:03;;;;;;;2.60;1.80;;;;;;;0.30;100.00;99277.63;4902400;28;20060;-58
2023/04/07 03:09:34;;;;;;;3.78;1.90;;;;;;;0.34;100.00;99269.09;4904802;28;20049;-58
2023/04/07 03:12:04;;;;;;;2.58;1.80;;;;;;;0.35;100.00;99269.94;4902094;28;20053;-57
2023/04/07 03:14:35;;;;;;;2.58;1.30;;;;;;;0.02;100.00;99211.41;4901471;28;20065;-57
2023/04/07 03:17:07;;;;;;;1.80;1.48;;;;;;;0.31;100.00;99255.38;4909416;28;20432;-57
2023/04/07 03:19:38;;;;;;;1.88;1.60;;;;;;;0.30;100.00;99257.06;4903107;28;20072;-57
2023/04/07 03:22:08;;;;;;;2.13;1.60;;;;;;;0.24;100.00;99267.28;4903996;28;20550;-57
2023/04/07 03:24:40;;;;;;;2.30;1.70;;;;;;;0.21;100.00;99267.25;4904256;28;20056;-56
2023/04/07 03:27:10;;;;;;;2.47;1.70;;;;;;;-0.07;100.00;99231.03;4906464;28;20125;-57
2023/04/07 03:29:41;;;;;;;2.22;1.90;;;;;;;0.01;100.00;99228.53;4905024;28;20062;-54
2023/04/07 03:32:13;;;;;;;2.60;1.80;;;;;;;0.19;100.00;99248.41;4907934;28;20072;-57
2023/04/07 03:34:44;;;;;;;3.03;1.63;;;;;;;0.16;100.00;99238.09;4906794;28;20098;-56
2023/04/07 03:37:14;;;;;;;2.47;1.48;;;;;;;0.17;100.00;99234.66;4907888;28;20046;-58
2023/04/07 03:39:45;;;;;;;4.97;2.67;;;;;;;0.20;100.00;99250.09;4904300;28;20057;-58
2023/04/07 03:42:15;;;;;;;13.77;4.75;;;;;;;0.15;100.00;99251.78;4910855;28;20050;-57
2023/04/07 03:44:46;;;;;;;10.02;3.55;;;;;;;0.13;100.00;99256.06;4909799;28;20521;-58
2023/04/07 03:47:19;;;;;;;4.93;2.33;;;;;;;0.06;100.00;99242.28;4906470;28;20145;-58
2023/04/07 03:49:50;;;;;;;3.97;2.17;;;;;;;0.12;100.00;99239.75;4908085;28;20052;-57
2023/04/07 03:52:20;;;;;;;4.13;2.30;;;;;;;0.01;100.00;99217.41;4905426;28;20049;-58
2023/04/07 03:54:51;;;;;;;8.48;4.35;;;;;;;0.21;100.00;99264.69;4907076;28;20059;-58
2023/04/07 03:57:21;;;;;;;3.80;2.53;;;;;;;0.10;100.00;99258.56;4905581;28;20125;-58
2023/04/07 03:59:52;;;;;;;2.15;1.60;;;;;;;0.15;100.00;99267.19;4906377;28;20048;-58
2023/04/07 04:02:24;;;;;;;3.60;1.60;;;;;;;-0.52;100.00;99155.28;4906124;28;20052;-57
2023/04/07 04:04:55;;;;;;;2.75;1.35;;;;;;;0.14;100.00;99238.06;4902924;28;20175;-58
2023/04/07 04:07:26;;;;;;;2.40;1.83;;;;;;;0.28;100.00;99243.34;4912185;28;20060;-57
2023/04/07 04:09:56;;;;;;;3.00;1.70;;;;;;;0.25;100.00;99243.31;4907486;28;20060;-57
2023/04/07 04:12:27;;;;;;;3.85;2.10;;;;;;;0.21;100.00;99246.72;4906855;28;20052;-57
2023/04/07 04:14:58;;;;;;;2.10;1.42;;;;;;;0.12;100.00;99251.75;4906141;28;20049;-57
2023/04/07 04:17:30;;;;;;;2.60;1.48;;;;;;;0.08;100.00;99240.59;4906903;28;20472;-56
2023/04/07 04:20:00;;;;;;;3.10;1.80;;;;;;;0.08;100.00;99242.31;4906830;28;20109;-58
2023/04/07 04:22:31;;;;;;;7.10;2.40;;;;;;;0.08;100.00;99224.34;4905490;28;20143;-59
2023/04/07 04:25:02;;;;;;;2.05;1.30;;;;;;;0.14;100.00;99224.38;4903921;28;20045;-57
2023/04/07 04:27:32;;;;;;;2.55;1.40;;;;;;;0.15;100.00;99226.09;4907508;28;20048;-57
2023/04/07 04:30:03;;;;;;;2.17;1.50;;;;;;;0.15;100.00;99231.22;4905786;28;20052;-58
2023/04/07 04:32:35;;;;;;;3.08;1.70;;;;;;;0.14;100.00;99234.66;4905715;28;20506;-58
2023/04/07 04:35:07;;;;;;;2.75;1.85;;;;;;;0.15;100.00;99236.34;4898393;28;20534;-57
2023/04/07 04:37:37;;;;;;;3.42;1.85;;;;;;;0.18;100.00;99238.97;4905461;28;20570;-58
2023/04/07 04:40:09;;;;;;;4.20;2.00;;;;;;;0.18;100.00;99241.56;4906006;28;20059;-57
2023/04/07 04:42:40;;;;;;;3.28;2.08;;;;;;;0.08;100.00;99224.34;4905984;28;20063;-58
2023/04/07 04:45:11;;;;;;;4.22;2.40;;;;;;;0.11;100.00;99239.75;4906548;28;20060;-57
2023/04/07 04:47:44;;;;;;;3.58;2.30;;;;;;;0.13;100.00;99241.50;4905692;28;20123;-57
2023/04/07 04:50:15;;;;;;;3.85;2.03;;;;;;;0.15;100.00;99231.22;4903758;28;20787;-55
2023/04/07 04:52:45;;;;;;;3.35;2.00;;;;;;;-0.27;100.00;99132.44;4911388;28;20466;-58
2023/04/07 04:55:16;;;;;;;4.05;1.52;;;;;;;0.28;100.00;99212.50;4911255;28;20058;-57
2023/04/07 04:57:46;;;;;;;3.72;1.98;;;;;;;0.26;100.00;99209.06;4907742;28;20065;-58
2023/04/07 05:00:18;;;;;;;4.05;1.55;;;;;;;0.40;100.00;99227.16;4904489;28;20056;-56
2023/04/07 05:02:50;;;;;;;4.10;1.40;;;;;;;0.37;100.00;99222.84;4906185;28;20040;-57
2023/04/07 05:05:21;;;;;;;5.65;1.80;;;;;;;-0.05;100.00;99167.72;4905230;28;20063;-58
2023/04/07 05:07:52;;;;;;;3.83;1.85;;;;;;;0.30;100.00;99220.22;4903347;28;20049;-55
2023/04/07 05:10:22;;;;;;;4.28;1.58;;;;;;;0.03;100.00;99210.59;4906330;28;20072;-59
2023/04/07 05:12:53;;;;;;;4.57;2.03;;;;;;;0.16;100.00;99238.09;4906234;28;20142;-57
2023/04/07 05:15:23;;;;;;;3.67;1.80;;;;;;;0.18;100.00;99232.13;4902919;28;20129;-57
2023/04/07 05:17:55;;;;;;;4.00;1.55;;;;;;;0.17;100.00;99239.81;4905919;28;20154;-58
2023/04/07 05:20:26;;;;;;;3.35;1.60;;;;;;;-0.06;100.00;99207.06;4898460;28;20054;-57
2023/04/07 05:22:56;;;;;;;5.32;1.88;;;;;;;0.16;100.00;99238.09;4904321;28;20053;-57
2023/04/07 05:25:27;;;;;;;4.18;1.90;;;;;;;0.16;100.00;99253.50;4905266;28;20067;-57
2023/04/07 05:28:00;;;;;;;2.90;1.63;;;;;;;-0.33;100.00;99170.88;4904568;28;20084;-57
2023/04/07 05:30:31;;;;;;;8.73;1.83;;;;;;;0.10;100.00;99243.16;4903283;28;20135;-56
2023/04/07 05:33:03;;;;;;;5.75;1.73;;;;;;;-0.03;100.00;99222.50;4905054;28;20127;-58
2023/04/07 05:35:34;;;;;;;3.80;1.60;;;;;;;0.02;100.00;99234.53;4904906;28;20098;-58
2023/04/07 05:38:04;;;;;;;2.72;1.70;;;;;;;0.01;100.00;99228.53;4905779;28;20058;-58
2023/04/07 05:40:35;;;;;;;2.47;1.70;;;;;;;0.03;100.00;99231.13;4901902;28;20063;-55
2023/04/07 05:43:06;;;;;;;5.70;1.80;;;;;;;0.04;100.00;99215.72;4908246;28;20420;-58
2023/04/07 05:45:37;;;;;;;4.82;1.90;;;;;;;0.14;100.00;99224.38;4905536;28;20079;-57
2023/04/07 05:48:09;;;;;;;3.78;1.45;;;;;;;0.11;100.00;99239.75;4903830;28;20123;-57
2023/04/07 05:50:40;;;;;;;4.20;1.92;;;;;;;0.05;100.00;99224.28;4903825;28;20082;-57
2023/04/07 05:53:10;;;;;;;4.07;1.83;;;;;;;0.03;100.00;99226.00;4904273;28;20052;-58
2023/04/07 05:55:43;;;;;;;2.95;1.83;;;;;;;0.03;100.00;99232.00;4904184;28;20063;-59
2023/04/07 05:58:14;;;;;;;2.92;1.45;;;;;;;-0.02;100.00;99234.50;4905088;28;20499;-58
2023/04/07 06:00:45;;;;;;;2.33;1.25;;;;;;;-0.72;100.00;99120.88;4904275;28;20126;-57
2023/04/07 06:03:17;;;;;;;6.45;2.40;;;;;;;-0.02;100.00;99224.25;4911181;28;20528;-57
2023/04/07 06:05:48;;;;;;;7.32;2.97;;;;;;;-0.14;100.00;99224.13;4904901;28;20146;-56
2023/04/07 06:08:18;;;;;;;9.75;4.43;;;;;;;-0.03;100.00;99247.31;4904843;28;20479;-57
2023/04/07 06:10:49;;;;;;;8.40;3.83;;;;;;;-0.04;100.00;99241.34;4903301;28;20048;-57
2023/04/07 06:13:20;;;;;;;4.80;2.30;;;;;;;-0.07;100.00;99250.72;4905143;28;20048;-58
2023/04/07 06:15:50;;;;;;;5.75;1.85;;;;;;;-0.09;100.00;99253.28;4905607;28;20372;-58
2023/04/07 06:18:22;;;;;;;3.53;1.80;;;;;;;-0.01;100.00;99246.50;4904278;28;20068;-56
2023/04/07 06:20:53;;;;;;;3.83;1.90;;;;;;;0.03;100.00;99246.53;4903150;28;20064;-58
2023/04/07 06:23:23;;;;;;;3.67;1.60;;;;;;;-0.05;100.00;99254.16;4905569;28;20824;-56
2023/04/07 06:25:54;;;;;;;7.80;1.45;;;;;;;-0.07;100.00;99236.19;4903634;28;20596;-58
2023/04/07 06:28:25;;;;;;;3.17;1.23;;;;;;;-0.03;100.00;99253.31;4902909;28;20049;-58
2023/04/07 06:30:55;;;;;;;4.90;2.00;;;;;;;-0.02;100.00;99252.50;4910808;28;20130;-55
2023/04/07 06:33:29;;;;;;;3.97;2.17;;;;;;;-0.05;100.00;99252.47;4904267;28;20048;-58
2023/04/07 06:36:00;;;;;;;2.58;1.30;;;;;;;-0.06;100.00;99255.84;4901307;28;20539;-58
2023/04/07 06:38:31;;;;;;;3.28;1.60;;;;;;;-0.06;100.00;99240.44;4912730;28;20048;-57
2023/04/07 06:41:01;;;;;;;2.80;1.40;;;;;;;-0.07;100.00;99241.31;4906757;28;20380;-57
2023/04/07 06:43:32;;;;;;;2.88;1.50;;;;;;;-0.22;100.00;99241.16;4902502;28;20044;-58
2023/04/07 06:46:03;;;;;;;1.92;1.38;;;;;;;-0.20;100.00;99244.59;4903759;28;20189;-58
2023/04/07 06:48:35;;;;;;;2.75;1.25;;;;;;;-0.16;100.00;99261.75;4903964;28;20378;-58
2023/04/07 06:51:06;;;;;;;3.60;1.50;;;;;;;-0.31;100.00;99226.50;4895820;28;20045;-56
2023/04/07 06:53:40;;;;;;;2.17;1.42;;;;;;;-0.13;100.00;99256.63;4902918;28;21667;-57
2023/04/07 06:56:12;;;;;;;4.00;1.20;;;;;;;-0.32;100.00;99245.34;4904049;28;20052;-57
2023/04/07 06:58:42;;;;;;;8.85;1.58;;;;;;;-0.18;100.00;99263.44;4903958;28;20044;-55
2023/04/07 07:01:13;;;;;;;2.08;1.40;;;;;;;-0.56;100.00;99215.09;4908164;28;20543;-53
2023/04/07 07:03:45;;;;;;;2.42;1.65;;;;;;;-0.20;100.00;99275.41;4909035;28;20103;-57
2023/04/07 07:06:16;;;;;;;1.52;1.10;;;;;;;-0.29;100.00;99275.31;4900405;28;20130;-56
2023/04/07 07:08:47;;;;;;;3.25;1.30;;;;;;;-0.28;100.00;99287.28;4903194;28;20052;-56
2023/04/07 07:11:18;;;;;;;4.07;1.42;;;;;;;-0.30;100.00;99282.16;4903543;28;20052;-56
2023/04/07 07:13:48;;;;;;;2.33;1.30;;;;;;;-0.31;100.00;99271.84;4902426;28;20052;-55
2023/04/07 07:16:19;;;;;;;2.38;1.75;;;;;;;-0.35;100.00;99264.94;4910604;28;20613;-58
2023/04/07 07:18:51;;;;;;;2.15;1.30;;;;;;;-0.54;100.00;99244.22;4902777;28;20045;-57
2023/04/07 07:21:23;;;;;;;2.42;1.30;;;;;;;-0.59;100.00;99229.63;4903259;28;20055;-57
2023/04/07 07:23:56;;;;;;;3.17;1.20;;;;;;;-0.25;100.00;99279.59;4902355;28;20126;-57
2023/04/07 07:26:26;;;;;;;2.47;1.20;;;;;;;-0.23;100.00;99280.50;4891968;28;20122;-57
2023/04/07 07:28:57;;;;;;;2.20;1.27;;;;;;;-0.28;100.00;99284.72;4904939;28;20045;-57
2023/04/07 07:31:28;;;;;;;3.95;1.50;;;;;;;-0.27;100.00;99289.88;4901675;28;20487;-58
2023/04/07 07:34:01;;;;;;;2.30;1.67;;;;;;;-0.30;100.00;99283.84;4901863;28;20048;-56
2023/04/07 07:36:31;;;;;;;1.30;1.20;;;;;;;-0.28;100.00;99292.41;4908123;28;20055;-56
2023/04/07 07:39:02;;;;;;;2.30;1.20;;;;;;;-0.29;100.00;99306.09;4908493;28;20658;-55
2023/04/07 07:41:33;;;;;;;2.33;1.42;;;;;;;-0.31;100.00;99307.78;4908037;28;20052;-58
2023/04/07 07:44:03;;;;;;;2.00;1.30;;;;;;;-0.29;100.00;99311.25;4908171;28;20661;-57
2023/04/07 07:46:34;;;;;;;2.53;1.00;;;;;;;-0.30;100.00;99309.50;4908958;28;20048;-57
2023/04/07 07:49:06;;;;;;;2.45;1.25;;;;;;;-0.38;100.00;99300.84;4908457;28;20074;-57
2023/04/07 07:51:37;;;;;;;1.50;1.08;;;;;;;-0.33;100.00;99309.47;4899490;28;20052;-57
2023/04/07 07:54:08;;;;;;;3.78;1.05;;;;;;;-0.44;100.00;99299.94;4908409;28;20056;-58
2023/04/07 07:56:38;;;;;;;1.10;1.00;;;;;;;-0.36;100.00;99314.56;4908178;28;20087;-56
2023/04/07 07:59:09;;;;;;;2.53;1.30;;;;;;;-0.44;100.00;99315.34;4907274;28;20428;-56
2023/04/07 08:01:40;;;;;;;2.80;1.20;;;;;;;-0.47;100.00;99310.19;4906141;28;20403;-58
2023/04/07 08:04:15;;;;;;;1.25;1.05;;;;;;;-0.47;100.00;99307.59;4908580;28;20063;-56
2023/04/07 08:06:46;;;;;;;3.40;1.35;;;;;;;-0.49;100.00;99304.16;4899289;28;20195;-57
2023/04/07 08:09:17;;;;;;;2.65;1.20;;;;;;;-0.52;100.00;99309.25;4906061;28;20045;-57
2023/04/07 08:11:48;;;;;;;2.00;1.40;;;;;;;-0.52;100.00;99318.66;4908123;28;20048;-57
2023/04/07 08:14:21;;;;;;;4.47;1.33;;;;;;;-0.56;100.00;99310.03;4910854;28;20059;-55
2023/04/07 08:16:52;;;;;;;5.47;1.38;;;;;;;-0.51;100.00;99316.09;4910609;28;20044;-57
2023/04/07 08:19:28;;;;;;;2.67;1.50;;;;;;;-0.57;100.00;99316.03;4910152;28;20067;-57
2023/04/07 08:21:59;;;;;;;3.90;1.30;;;;;;;-0.58;100.00;99316.00;4902988;28;20767;-57
2023/04/07 08:24:30;;;;;;;4.85;1.60;;;;;;;-0.73;100.00;99303.81;4910968;28;20044;-57
2023/04/07 08:27:01;;;;;;;5.63;1.60;;;;;;;-0.65;100.00;99340.69;4908970;28;20374;-56
2023/04/07 08:29:34;;;;;;;5.03;1.70;;;;;;;-0.61;100.00;99334.78;4910042;28;20052;-57
2023/04/07 08:32:07;;;;;;;3.28;1.60;;;;;;;-0.74;100.00;99317.50;4907879;28;20050;-56
2023/04/07 08:34:40;;;;;;;1.52;1.13;;;;;;;-0.76;100.00;99317.47;4906656;28;20056;-57
2023/04/07 08:37:11;;;;;;;4.22;1.65;;;;;;;-0.69;100.00;99328.69;4899145;28;20144;-55
2023/04/07 08:39:41;;;;;;;2.13;1.27;;;;;;;-0.68;100.00;99330.41;4899320;28;20055;-56
2023/04/07 08:42:16;;;;;;;3.78;1.40;;;;;;;-0.69;100.00;99326.13;4899223;28;20048;-56
2023/04/07 08:44:51;;;;;;;2.85;1.70;;;;;;;-0.72;100.00;99320.97;4889170;28;20059;-56
2023/04/07 08:47:26;;;;;;;3.40;1.45;;;;;;;-1.02;100.00;99280.31;4898541;28;20048;-57
2023/04/07 08:50:02;;;;;;;4.57;1.70;;;;;;;-0.73;100.00;99321.78;4888979;28;20056;-56
2023/04/07 08:52:40;;;;;;;4.10;1.83;;;;;;;-0.94;100.00;99289.88;4897770;28;21048;-57
2023/04/07 08:55:14;;;;;;;4.80;1.75;;;;;;;-0.73;100.00;99324.34;4898559;28;20060;-57
2023/04/07 08:57:44;;;;;;;5.45;1.95;;;;;;;-0.71;100.00;99317.53;4899362;28;20110;-58
2023/04/07 09:00:16;;;;;;;4.43;1.70;;;;;;;-0.75;100.00;99311.53;4898818;28;20074;-57
2023/04/07 09:02:48;;;;;;;7.50;1.80;;;;;;;-0.75;100.00;99332.03;4890695;28;20176;-56
2023/04/07 09:05:27;;;;;;;6.05;1.70;;;;;;;-0.71;100.00;99338.06;4899417;28;20064;-57
2023/04/07 09:07:58;;;;;;;3.33;1.90;;;;;;;-0.78;100.00;99331.97;4888817;28;20049;-57
2023/04/07 09:10:31;;;;;;;3.20;1.90;;;;;;;-0.75;100.00;99341.41;4897623;28;20084;-57
2023/04/07 09:13:01;;;;;;;6.20;2.10;;;;;;;-0.72;100.00;99346.63;4902374;28;20048;-56
2023/04/07 09:15:34;;;;;;;3.03;2.10;;;;;;;-0.71;100.00;99361.16;4906290;28;20402;-57
2023/04/07 09:18:07;;;;;;;4.97;2.22;;;;;;;-0.72;100.00;99362.00;4889130;28;20591;-57
2023/04/07 09:20:59;;;;;;;5.95;2.70;;;;;;;-0.75;100.00;99359.38;4899064;28;20076;-56
2023/04/07 09:23:34;;;;;;;5.47;2.58;;;;;;;-0.73;100.00;99365.38;4887378;28;20151;-58
2023/04/07 09:26:27;;;;;;;7.32;2.85;;;;;;;-0.78;100.00;99383.28;4888805;28;20464;-57
2023/04/07 09:28:59;;;;;;;5.00;3.30;;;;;;;-0.72;100.00;99362.00;4888510;28;20044;-56
2023/04/07 09:31:46;;;;;;;9.23;3.80;;;;;;;-0.73;100.00;99373.09;4899050;28;20597;-57
2023/04/07 09:34:27;;;;;;;4.75;2.28;;;;;;;-0.71;100.00;99373.97;4885975;28;20068;-57
2023/04/07 09:37:00;;;;;;;6.32;2.85;;;;;;;-0.74;100.00;99361.13;4888510;28;20075;-57
2023/04/07 09:39:31;;;;;;;4.35;2.50;;;;;;;-0.71;100.00;99371.41;4898599;28;20075;-58
2023/04/07 09:42:10;;;;;;;6.30;2.65;;;;;;;-0.85;100.00;99365.22;4897934;28;20122;-58
2023/04/07 09:44:41;;;;;;;6.85;2.75;;;;;;;-0.73;100.00;99396.19;4886837;28;20044;-57
2023/04/07 09:47:12;;;;;;;5.85;2.80;;;;;;;-0.76;100.00;99403.84;4898014;28;20052;-58
2023/04/07 09:49:52;;;;;;;3.83;2.55;;;;;;;-0.72;100.00;99408.19;4896773;28;20050;-58
2023/04/07 09:52:50;;;;;;;6.22;2.97;;;;;;;-0.69;100.00;99414.22;4887760;28;20114;-58
2023/04/07 09:55:28;;;;;;;6.25;2.65;;;;;;;-0.71;100.00;99409.91;4888387;28;20053;-58
2023/04/07 09:57:59;;;;;;;5.72;2.75;;;;;;;-0.74;100.00;99420.97;4888296;28;20054;-57
2023/04/07 10:00:34;;;;;;;7.28;3.30;;;;;;;-0.97;100.00;99387.28;4897435;28;20060;-57
2023/04/07 10:03:08;;;;;;;6.90;3.55;;;;;;;-0.74;100.00;99420.13;4888515;28;20052;-58
2023/04/07 10:05:39;;;;;;;6.45;3.10;;;;;;;-0.75;100.00;99408.09;4898909;28;20140;-57
2023/04/07 10:08:11;;;;;;;9.63;3.60;;;;;;;-0.79;100.00;99401.22;4897481;28;20079;-57
2023/04/07 10:10:44;;;;;;;5.63;3.50;;;;;;;-0.74;100.00;99409.84;4909161;28;20044;-58
2023/04/07 10:13:15;;;;;;;8.38;3.40;;;;;;;-0.77;100.00;99415.81;4898117;28;20107;-57
2023/04/07 10:15:46;;;;;;;7.95;3.33;;;;;;;-0.74;100.00;99426.09;4891835;28;20500;-58
2023/04/07 10:18:29;;;;;;;9.27;3.78;;;;;;;-1.18;100.00;99351.03;4897947;28;20052;-58
2023/04/07 10:21:06;;;;;;;8.43;3.05;;;;;;;-0.83;100.00;99419.97;4886955;28;20376;-58
2023/04/07 10:23:54;;;;;;;10.25;3.70;;;;;;;-0.79;100.00;99432.00;4888036;28;20048;-58
2023/04/07 10:26:31;;;;;;;7.30;3.60;;;;;;;-0.81;100.00;99431.13;4885928;28;20068;-57
2023/04/07 10:29:12;;;;;;;5.28;2.83;;;;;;;-0.77;100.00;99435.47;4898091;28;20108;-58
2023/04/07 10:31:52;;;;;;;7.65;3.50;;;;;;;-0.92;100.00;99415.56;4886905;28;20059;-58
2023/04/07 10:35:00;;;;;;;8.75;3.22;;;;;;;-0.81;100.00;99439.66;4881978;28;20101;-58
2023/04/07 10:37:33;;;;;;;8.30;3.58;;;;;;;-0.80;100.00;99430.25;4874036;28;20149;-58
2023/04/07 10:40:33;;;;;;;7.63;3.97;;;;;;;-0.78;100.00;99434.56;4884325;28;20075;-56
2023/04/07 10:43:08;;;;;;;11.15;3.95;;;;;;;-1.11;100.00;99388.75;4872996;28;20126;-58
2023/04/07 10:45:59;;;;;;;8.68;4.00;;;;;;;-0.90;100.00;99419.00;4874810;28;20171;-58
2023/04/07 10:48:32;;;;;;;8.52;3.92;;;;;;;-0.76;100.00;99447.44;4873225;28;20274;-58
2023/04/07 10:51:19;;;;;;;8.43;4.00;;;;;;;-0.75;100.00;99428.63;4883911;28;20051;-58
2023/04/07 10:54:17;;;;;;;10.85;3.75;;;;;;;-0.74;100.00;99433.81;4873648;28;20048;-57
2023/04/07 10:57:14;;;;;;;8.10;3.10;;;;;;;-0.73;100.00;99432.09;4859094;28;20053;-57
2023/04/07 11:00:18;;;;;;;5.93;2.92;;;;;;;-0.76;100.00;99438.03;4870036;28;20452;-57
2023/04/07 11:03:05;;;;;;;10.80;2.88;;;;;;;-0.79;100.00;99449.97;4872466;28;20053;-57
2023/04/07 11:05:39;;;;;;;7.47;2.88;;;;;;;-0.77;100.00;99446.59;4873530;28;20175;-58
2023/04/07 11:08:11;;;;;;;5.35;2.85;;;;;;;-0.75;100.00;99459.41;4883939;28;20102;-58
2023/04/07 11:10:48;;;;;;;7.43;2.95;;;;;;;-1.13;100.00;99411.78;4882788;28;20049;-58
2023/04/07 11:13:21;;;;;;;7.65;3.00;;;;;;;-0.72;100.00;99459.50;4873513;28;20909;-58
2023/04/07 11:15:52;;;;;;;16.10;4.22;;;;;;;-1.08;100.00;99393.91;4881391;28;20044;-58
2023/04/07 11:18:24;;;;;;;14.13;4.88;;;;;;;-0.71;100.00;99451.78;4880921;28;20377;-58
2023/04/07 11:20:58;;;;;;;14.23;4.90;;;;;;;-0.63;100.00;99480.13;4882186;28;20211;-58
2023/04/07 11:23:29;;;;;;;15.43;4.80;;;;;;;-0.69;100.00;99490.31;4883668;28;20482;-58
2023/04/07 11:26:02;;;;;;;18.45;4.93;;;;;;;-0.65;100.00;99481.81;4883426;28;20830;-59
2023/04/07 11:28:36;;;;;;;14.85;4.47;;;;;;;-0.69;100.00;99459.53;4884072;28;20048;-58
2023/04/07 11:31:08;;;;;;;12.55;4.88;;;;;;;-0.63;100.00;99475.00;4873529;28;20106;-58
2023/04/07 11:33:40;;;;;;;10.27;4.22;;;;;;;-0.67;100.00;99478.38;4883012;28;20053;-57
2023/04/07 11:36:12;;;;;;;16.65;3.50;;;;;;;-0.64;100.00;99495.53;4899309;28;20060;-58
2023/04/07 11:38:45;;;;;;;11.13;3.40;;;;;;;-0.64;100.00;99487.81;4901672;28;20048;-58
2023/04/07 11:41:17;;;;;;;10.52;3.55;;;;;;;-1.09;100.00;99417.84;4896223;28;20706;-57
2023/04/07 11:43:51;;;;;;;13.20;4.07;;;;;;;-0.72;100.00;99470.59;4899797;28;20080;-57
2023/04/07 11:46:23;;;;;;;10.95;4.85;;;;;;;-0.74;100.00;99466.28;4899099;28;20060;-58
2023/04/07 11:48:54;;;;;;;12.98;4.97;;;;;;;-0.68;100.00;99481.75;4905159;28;20106;-57
2023/04/07 11:51:30;;;;;;;10.75;4.90;;;;;;;-0.65;100.00;99476.69;4900816;28;20057;-58
2023/04/07 11:54:03;;;;;;;14.40;5.90;;;;;;;-0.63;100.00;99482.72;4904851;28;20041;-57
2023/04/07 11:56:44;;;;;;;9.20;4.22;;;;;;;-0.64;100.00;99473.28;4904661;28;20049;-58